Terminal Aerodrome Forecast
Issued by NWS Amarillo, TX

Home | Current Version | Previous Version | Text Only | Print | Product List | Glossary On
Versions: 1 2 3 4 5 6 7 8 9 10 11 12 13 14 15 16 17 18 19 20 21 22
000
FTUS44 KAMA 171136
TAFGUY
TAF
KGUY 171136Z 1712/1812 31008KT P6SM OVC050
     FM171400 26006KT P6SM OVC050
     FM171700 20006KT P6SM SCT060 SCT200
     FM180600 20007KT P6SM BKN035 OVC050=

USA.gov is the U.S. government's official web portal to all federal, state and local government web resources and services.